Time;durP1;ratioP1;P1;durP2;ratioP2;P2;SDS_P1;SDS_P2;PMS_P1;PMS_P2;Temp;Humidity;BMP_temperature;BMP_pressure;BME280_temperature;BME280_humidity;BME280_pressure;Samples;Min_cycle;Max_cycle;Signal;HPM_P1;HPM_P2
2022/01/19 00:00:50;;;;;;;;;16.25;14.25;;;;;9.01;66.58;102834.06;5098608;27;63685;-76
2022/01/19 00:03:16;;;;;;;;;24.25;17.00;;;;;9.04;66.34;102830.66;5099238;27;55705;-76
2022/01/19 00:05:41;;;;;;;;;26.50;19.00;;;;;9.04;66.41;102830.66;5088724;27;45649;-74
2022/01/19 00:08:07;;;;;;;;;18.25;17.00;;;;;9.05;66.49;102840.34;5098733;27;60305;-75
2022/01/19 00:10:32;;;;;;;;;20.50;19.00;;;;;9.05;66.47;102843.00;5098874;27;45263;-75
2022/01/19 00:12:58;;;;;;;;;20.50;14.50;;;;;9.04;65.98;102835.91;5099260;27;45469;-75
2022/01/19 00:15:24;;;;;;;;;19.75;14.25;;;;;9.04;66.46;102833.28;5099670;27;45623;-75
2022/01/19 00:17:54;;;;;;;;;18.25;14.25;;;;;9.04;66.16;102818.38;5094945;27;46643;-76
2022/01/19 00:20:20;;;;;;;;;23.75;15.25;;;;;9.05;66.35;102808.72;5092074;27;45236;-76
2022/01/19 00:22:45;;;;;;;;;21.50;15.25;;;;;9.06;66.30;102797.41;5099130;27;45244;-77
2022/01/19 00:25:10;;;;;;;;;26.50;18.25;;;;;9.07;66.42;102778.13;5098862;27;54060;-75
2022/01/19 00:27:36;;;;;;;;;31.50;18.50;;;;;9.06;66.35;102774.59;5098380;27;58708;-75
2022/01/19 00:30:01;;;;;;;;;24.50;19.75;;;;;9.06;66.35;102766.69;5098835;27;45386;-75
2022/01/19 00:32:29;;;;;;;;;18.75;15.75;;;;;9.05;66.29;102766.56;5095288;27;45369;-77
2022/01/19 00:34:54;;;;;;;;;21.50;17.25;;;;;9.05;66.28;102754.31;5097859;27;46299;-75
2022/01/19 00:37:19;;;;;;;;;21.25;16.75;;;;;9.05;66.16;102754.31;5097026;27;46241;-74
2022/01/19 00:39:45;;;;;;;;;25.25;17.00;;;;;9.05;65.96;102737.59;5092853;27;60788;-74
2022/01/19 00:42:10;;;;;;;;;21.25;13.00;;;;;9.04;66.06;102757.78;5099474;27;45908;-76
2022/01/19 00:44:35;;;;;;;;;19.50;16.50;;;;;9.04;65.93;102772.69;5098983;27;52373;-76
2022/01/19 00:47:01;;;;;;;;;21.25;17.75;;;;;9.02;65.88;102780.53;5094965;27;46210;-75
2022/01/19 00:49:26;;;;;;;;;15.75;15.50;;;;;9.04;66.03;102770.03;5098611;27;45716;-76
2022/01/19 00:51:52;;;;;;;;;16.75;15.75;;;;;9.05;66.18;102774.47;5097147;27;45587;-76
2022/01/19 00:54:17;;;;;;;;;18.00;13.25;;;;;9.04;66.06;102770.03;5098924;27;45227;-75
2022/01/19 00:56:42;;;;;;;;;21.25;17.75;;;;;9.01;65.91;102775.19;5097450;27;65365;-75
2022/01/19 00:59:08;;;;;;;;;21.25;18.50;;;;;9.03;66.05;102786.69;5095303;27;61015;-75
2022/01/19 01:01:33;;;;;;;;;25.25;20.25;;;;;9.01;65.91;102778.72;5098544;27;47523;-75
2022/01/19 01:03:58;;;;;;;;;19.25;17.00;;;;;9.02;65.98;102766.44;5097964;27;56971;-77
2022/01/19 01:06:24;;;;;;;;;22.00;17.25;;;;;9.02;66.15;102771.72;5091338;27;55949;-75
2022/01/19 01:08:49;;;;;;;;;16.50;14.50;;;;;9.02;65.72;102769.09;5097993;27;60408;-75
2022/01/19 01:11:16;;;;;;;;;17.50;17.50;;;;;9.00;65.91;102753.22;5091665;27;55896;-76
2022/01/19 01:16:57;;;;;;;;;26.00;18.50;;;;;9.02;66.04;102745.38;5052348;27;45974;-75
2022/01/19 01:19:23;;;;;;;;;18.50;15.50;;;;;8.98;66.12;102736.41;5095171;27;45469;-75
2022/01/19 01:21:48;;;;;;;;;21.25;17.50;;;;;8.99;65.74;102730.31;5097768;27;59127;-77
2022/01/19 01:24:13;;;;;;;;;21.25;18.25;;;;;9.01;65.86;102727.75;5097976;27;52240;-75
2022/01/19 01:26:39;;;;;;;;;25.25;16.75;;;;;8.99;65.84;102727.66;5092242;27;46067;-75
2022/01/19 01:29:04;;;;;;;;;14.25;13.50;;;;;9.00;65.59;102728.56;5097615;27;60349;-75
2022/01/19 01:31:30;;;;;;;;;15.75;13.25;;;;;8.98;65.51;102727.59;5097990;27;45411;-77
2022/01/19 01:33:55;;;;;;;;;20.25;16.50;;;;;8.98;66.00;102744.31;5097423;27;50958;-76
2022/01/19 01:36:20;;;;;;;;;24.25;16.75;;;;;8.97;65.83;102749.50;5094899;27;46349;-75
2022/01/19 01:38:46;;;;;;;;;25.50;17.50;;;;;8.97;66.03;102738.97;5090249;27;60794;-75
2022/01/19 01:41:13;;;;;;;;;20.00;15.25;;;;;8.97;65.63;102749.50;5097499;27;56947;-77
2022/01/19 01:43:40;;;;;;;;;19.50;18.75;;;;;8.98;65.74;102740.78;5098144;27;45361;-76
2022/01/19 01:46:21;;;;;;;;;23.50;17.50;;;;;8.97;65.83;102725.81;5097109;27;46502;-75
2022/01/19 01:48:47;;;;;;;;;21.50;18.25;;;;;8.97;65.90;102734.59;5094757;27;45380;-77
2022/01/19 01:53:57;;;;;;;;;19.25;16.50;;;;;8.93;65.90;102715.09;5086901;27;45468;-75
2022/01/19 01:56:22;;;;;;;;;24.00;19.75;;;;;8.96;65.82;102718.72;5097751;27;47347;-76
2022/01/19 01:58:48;;;;;;;;;27.00;17.25;;;;;8.86;65.80;102694.56;5097879;27;45266;-75
2022/01/19 02:01:14;;;;;;;;;22.50;17.00;;;;;8.97;65.70;102717.91;5085198;27;45251;-77
2022/01/19 02:03:41;;;;;;;;;18.25;16.50;;;;;8.97;65.68;102704.72;5097895;27;45223;-75
2022/01/19 02:08:54;;;;;;;;;21.75;18.00;;;;;8.96;65.65;102706.47;5097284;27;45259;-78
2022/01/19 02:22:38;;;;;;;;;18.00;18.00;;;;;8.91;65.81;102669.34;5097420;27;45457;-77
2022/01/19 02:25:05;;;;;;;;;24.00;19.25;;;;;8.88;65.75;102660.41;5096377;27;45588;-76
2022/01/19 02:36:53;;;;;;;;;24.50;19.00;;;;;8.89;65.54;102636.78;5096623;27;45292;-75
2022/01/19 02:41:26;;;;;;;;;28.00;18.25;;;;;8.91;65.44;102621.94;5095750;27;45318;-75
2022/01/19 02:43:51;;;;;;;;;24.25;18.25;;;;;8.85;65.56;102626.94;5097010;27;45410;-75
2022/01/19 02:51:55;;;;;;;;;21.00;17.50;;;;;8.90;65.46;102600.81;5075283;27;45528;-76
2022/01/19 02:54:22;;;;;;;;;21.00;17.25;;;;;8.89;65.42;102601.59;5091473;27;56621;-75
2022/01/19 02:56:51;;;;;;;;;23.75;18.75;;;;;8.88;65.42;102603.34;5091948;27;45431;-77
2022/01/19 02:59:28;;;;;;;;;22.75;18.75;;;;;8.84;65.55;102596.16;5090255;27;46623;-75
2022/01/19 03:10:05;;;;;;;;;22.75;20.50;;;;;8.87;65.34;102593.63;5092308;27;45829;-73
2022/01/19 03:12:30;;;;;;;;;29.75;20.25;;;;;8.88;65.27;102599.81;5090399;27;45436;-74
2022/01/19 03:14:56;;;;;;;;;23.25;18.00;;;;;8.87;65.08;102590.09;5096521;27;45462;-75
2022/01/19 03:17:22;;;;;;;;;22.25;17.25;;;;;8.83;65.26;102582.88;5094398;27;45914;-75
2022/01/19 03:19:47;;;;;;;;;22.00;18.25;;;;;8.87;65.56;102585.75;5096418;27;47288;-75
2022/01/19 03:22:12;;;;;;;;;21.25;18.50;;;;;8.87;65.32;102585.75;5088012;27;49268;-74
2022/01/19 03:24:39;;;;;;;;;25.25;18.00;;;;;8.86;65.25;102580.41;5089708;27;45384;-73
2022/01/19 03:27:05;;;;;;;;;24.75;20.00;;;;;8.88;65.24;102573.47;5091224;27;45540;-75
2022/01/19 03:29:30;;;;;;;;;22.75;19.00;;;;;8.87;65.32;102574.31;5091788;27;46815;-75
2022/01/19 03:31:56;;;;;;;;;26.00;20.75;;;;;8.88;65.12;102578.72;5084894;27;49654;-76
2022/01/19 03:34:21;;;;;;;;;20.50;14.50;;;;;8.87;65.22;102577.84;5093809;27;58895;-75
2022/01/19 03:36:46;;;;;;;;;20.50;17.00;;;;;8.83;65.53;102572.34;5096773;27;45321;-77
2022/01/19 03:39:12;;;;;;;;;22.50;17.50;;;;;8.86;65.08;102578.66;5090619;27;61477;-75
2022/01/19 03:41:37;;;;;;;;;29.25;21.25;;;;;8.88;65.31;102578.72;5092542;27;52834;-77
2022/01/19 03:44:03;;;;;;;;;18.25;17.25;;;;;8.84;65.22;102574.16;5094045;27;45355;-75
2022/01/19 03:46:33;;;;;;;;;26.25;18.00;;;;;8.86;65.08;102576.03;5089280;27;45272;-75
2022/01/19 03:49:09;;;;;;;;;28.25;20.75;;;;;8.87;65.18;102585.75;5095940;27;46466;-75
2022/01/19 03:51:34;;;;;;;;;18.25;17.00;;;;;8.84;65.24;102575.06;5090177;27;45628;-76
2022/01/19 03:54:00;;;;;;;;;16.25;15.50;;;;;8.85;65.10;102568.97;5092284;27;53450;-75
2022/01/19 03:56:25;;;;;;;;;20.75;20.50;;;;;8.81;65.05;102553.84;5098484;27;53318;-76
2022/01/19 03:58:50;;;;;;;;;24.25;17.25;;;;;8.85;65.09;102553.16;5080151;27;61450;-74
2022/01/19 04:01:17;;;;;;;;;23.50;18.75;;;;;8.84;65.09;102563.59;5094841;27;59229;-74
2022/01/19 04:06:29;;;;;;;;;21.75;21.75;;;;;8.85;65.25;102552.28;5099727;27;45534;-75
2022/01/19 04:08:54;;;;;;;;;21.50;17.75;;;;;8.84;64.89;102560.97;5098201;27;47323;-75
2022/01/19 04:11:22;;;;;;;;;27.50;17.25;;;;;8.83;65.13;102557.44;5096978;27;45536;-74
2022/01/19 04:16:21;;;;;;;;;20.50;17.00;;;;;8.84;65.36;102555.72;5099456;27;45231;-74
2022/01/19 04:18:47;;;;;;;;;23.25;21.00;;;;;8.84;65.20;102550.44;5099014;27;54464;-75
2022/01/19 04:21:14;;;;;;;;;22.00;20.25;;;;;8.84;65.24;102556.63;5095106;27;45386;-76
2022/01/19 04:23:39;;;;;;;;;17.00;17.00;;;;;8.84;65.31;102554.00;5097396;27;45523;-76
2022/01/19 04:26:05;;;;;;;;;18.50;18.00;;;;;8.83;65.21;102551.28;5097524;27;50659;-75
2022/01/19 04:28:31;;;;;;;;;22.50;19.00;;;;;8.84;65.54;102559.28;5095320;27;47608;-74
2022/01/19 04:30:56;;;;;;;;;27.00;19.00;;;;;8.85;65.38;102558.44;5073979;27;45414;-75
2022/01/19 04:33:25;;;;;;;;;19.75;18.75;;;;;8.84;65.36;102548.75;5099673;27;45223;-75
2022/01/19 04:35:52;;;;;;;;;19.00;15.00;;;;;8.85;65.45;102555.81;5098324;27;45595;-74
2022/01/19 04:44:28;;;;;;;;;19.75;18.00;;;;;8.85;65.31;102553.16;5027475;28;45391;-75
2022/01/19 05:03:43;;;;;;;;;22.00;19.25;;;;;8.85;65.71;102555.81;5098561;27;45249;-75
2022/01/19 05:06:15;;;;;;;;;28.00;24.00;;;;;8.85;65.15;102549.63;5095888;27;45402;-74
2022/01/19 05:13:59;;;;;;;;;22.75;21.00;;;;;8.83;65.12;102562.72;5093748;27;45220;-74
2022/01/19 05:16:24;;;;;;;;;30.50;23.50;;;;;8.84;65.29;102564.53;5091781;27;54064;-76
2022/01/19 05:18:50;;;;;;;;;27.25;20.50;;;;;8.78;65.63;102545.78;5098767;27;45531;-76
2022/01/19 05:21:15;;;;;;;;;22.25;17.00;;;;;8.85;65.29;102560.19;5097369;27;45644;-74
2022/01/19 05:23:41;;;;;;;;;26.50;22.25;;;;;8.83;65.23;102546.00;5093947;27;45464;-75
2022/01/19 05:26:06;;;;;;;;;30.75;23.00;;;;;8.80;65.25;102551.16;5096168;27;46232;-76
2022/01/19 05:28:32;;;;;;;;;23.75;20.00;;;;;8.80;65.06;102559.06;5091189;27;45379;-75
2022/01/19 05:30:57;;;;;;;;;25.75;21.25;;;;;8.79;65.19;102551.97;5090816;27;47423;-76
2022/01/19 05:33:23;;;;;;;;;30.50;21.75;;;;;8.77;65.30;102551.91;5094508;27;45370;-77
2022/01/19 05:35:48;;;;;;;;;27.00;22.50;;;;;8.72;65.46;102547.25;5090009;27;45393;-74
2022/01/19 05:38:13;;;;;;;;;34.00;24.25;;;;;8.74;65.38;102545.63;5083423;27;55816;-75
2022/01/19 05:40:39;;;;;;;;;30.00;22.50;;;;;8.76;65.74;102542.19;5083790;27;62757;-78
2022/01/19 05:43:04;;;;;;;;;26.25;24.00;;;;;8.76;65.32;102543.94;5083505;27;45313;-77
2022/01/19 05:45:30;;;;;;;;;28.00;24.00;;;;;8.76;65.58;102536.03;5081352;27;46050;-78
2022/01/19 05:47:55;;;;;;;;;27.00;24.75;;;;;8.77;65.40;102543.09;5085842;27;45538;-78
2022/01/19 05:50:20;;;;;;;;;32.00;22.75;;;;;8.72;65.62;102542.88;5081564;27;47350;-76
2022/01/19 05:52:46;;;;;;;;;35.25;33.25;;;;;8.76;65.76;102549.22;5082055;27;46498;-79
2022/01/19 05:55:11;;;;;;;;;34.25;27.00;;;;;8.76;65.63;102539.56;5084711;27;53674;-78
2022/01/19 05:57:37;;;;;;;;;30.75;28.00;;;;;8.76;65.50;102546.56;5084763;27;55085;-77
2022/01/19 06:00:04;;;;;;;;;28.50;23.75;;;;;8.75;65.36;102534.25;5085449;27;45613;-79
2022/01/19 06:02:29;;;;;;;;;38.50;29.75;;;;;8.74;65.38;102538.63;5084051;27;45461;-80
2022/01/19 06:04:55;;;;;;;;;36.00;27.25;;;;;8.74;65.74;102542.97;5085466;27;45451;-79
2022/01/19 06:07:26;;;;;;;;;36.00;30.75;;;;;8.72;65.48;102548.16;5088584;27;52104;-76
2022/01/19 06:10:01;;;;;;;;;37.75;29.50;;;;;8.71;65.67;102545.47;5090807;27;46847;-77
2022/01/19 06:12:26;;;;;;;;;38.00;32.25;;;;;8.68;65.75;102545.31;5097317;27;45449;-76
2022/01/19 06:14:52;;;;;;;;;44.50;33.25;;;;;8.63;65.69;102538.13;5096296;27;54324;-76
2022/01/19 06:17:17;;;;;;;;;29.75;27.25;;;;;8.66;65.94;102542.59;5093463;27;45864;-77
2022/01/19 06:19:44;;;;;;;;;37.00;32.00;;;;;8.63;66.09;102532.84;5088501;27;46218;-76
2022/01/19 06:22:10;;;;;;;;;39.25;32.50;;;;;8.68;65.88;102538.31;5095094;27;45470;-76
2022/01/19 06:24:35;;;;;;;;;39.75;33.75;;;;;8.66;65.86;102530.34;5090107;27;47501;-77
2022/01/19 06:27:00;;;;;;;;;44.00;35.00;;;;;8.66;66.00;102532.97;5095680;27;46261;-76
2022/01/19 06:29:26;;;;;;;;;36.25;32.25;;;;;8.65;66.04;102525.91;5093036;27;60546;-76
2022/01/19 06:31:52;;;;;;;;;38.00;30.75;;;;;8.63;66.02;102532.84;5096371;27;45617;-76
2022/01/19 06:34:17;;;;;;;;;33.50;27.75;;;;;8.66;66.23;102532.06;5095363;27;45413;-77
2022/01/19 06:36:43;;;;;;;;;38.75;33.50;;;;;8.67;65.96;102528.59;5094555;27;55426;-76
2022/01/19 06:39:08;;;;;;;;;50.75;36.00;;;;;8.67;65.96;102533.88;5092658;27;46658;-77
2022/01/19 06:41:34;;;;;;;;;33.25;30.75;;;;;8.67;66.22;102536.50;5095350;27;59883;-75
2022/01/19 06:43:59;;;;;;;;;34.75;33.00;;;;;8.62;66.45;102527.50;5089127;27;54991;-76
2022/01/19 06:46:25;;;;;;;;;43.25;32.75;;;;;8.62;66.19;102535.38;5097160;27;54127;-77
2022/01/19 06:48:50;;;;;;;;;40.00;30.00;;;;;8.55;66.07;102525.41;5091712;27;46382;-76
2022/01/19 06:51:15;;;;;;;;;39.50;34.00;;;;;8.51;66.11;102516.47;5079536;27;61345;-75
2022/01/19 06:53:41;;;;;;;;;36.50;30.75;;;;;8.50;66.27;102527.84;5075588;27;45462;-75
2022/01/19 06:56:06;;;;;;;;;43.75;37.25;;;;;8.48;66.20;102520.72;5095402;27;54839;-76
2022/01/19 06:58:32;;;;;;;;;42.25;33.25;;;;;8.48;66.62;102525.97;5094540;27;59063;-75
2022/01/19 07:00:57;;;;;;;;;41.50;35.75;;;;;8.47;66.54;102522.44;5092732;27;45468;-77
2022/01/19 07:03:22;;;;;;;;;41.75;36.25;;;;;8.42;66.79;102505.53;5073501;27;45616;-77
2022/01/19 07:05:48;;;;;;;;;35.25;30.00;;;;;8.47;66.49;102522.44;5088959;27;45509;-75
2022/01/19 07:08:14;;;;;;;;;40.50;30.75;;;;;8.49;66.53;102522.50;5087793;27;46366;-75
2022/01/19 07:10:39;;;;;;;;;46.25;36.75;;;;;8.49;66.34;102523.41;5091977;27;45561;-75
2022/01/19 07:13:04;;;;;;;;;48.25;37.50;;;;;8.46;66.53;102519.72;5085924;27;53716;-76
2022/01/19 07:15:30;;;;;;;;;33.00;31.00;;;;;8.47;66.76;102516.25;5070345;27;48561;-76
2022/01/19 07:17:55;;;;;;;;;36.25;30.75;;;;;8.50;66.46;102527.84;5090220;27;46792;-77
2022/01/19 07:20:21;;;;;;;;;46.50;37.75;;;;;8.49;66.71;102520.78;5083132;27;45466;-77
2022/01/19 07:22:48;;;;;;;;;37.00;35.50;;;;;8.45;66.59;102512.66;5090574;27;45572;-78
2022/01/19 07:25:13;;;;;;;;;35.50;29.25;;;;;8.43;66.95;102517.84;5088179;27;45693;-77
2022/01/19 07:27:39;;;;;;;;;40.75;33.25;;;;;8.47;66.63;102539.94;5085518;27;47338;-76
2022/01/19 07:30:05;;;;;;;;;46.50;36.25;;;;;8.43;66.76;102536.28;5089790;27;45493;-77
2022/01/19 07:32:34;;;;;;;;;38.50;34.00;;;;;8.45;66.99;102537.25;5092112;27;45434;-76
2022/01/19 07:34:59;;;;;;;;;41.00;37.25;;;;;8.43;67.02;102533.66;5091785;27;45620;-76
2022/01/19 07:37:25;;;;;;;;;35.25;29.50;;;;;8.44;67.18;102545.97;5091479;27;47432;-75
2022/01/19 07:39:50;;;;;;;;;45.50;37.25;;;;;8.45;67.15;102534.63;5220968;22;45770;-76
2022/01/19 07:42:16;;;;;;;;;41.50;34.75;;;;;8.43;66.99;102522.22;5111317;27;45792;-75
2022/01/19 07:44:41;;;;;;;;;42.00;34.50;;;;;8.49;67.05;102533.94;5094622;27;55323;-77
2022/01/19 07:47:06;;;;;;;;;45.75;34.75;;;;;8.47;66.97;102525.06;5112664;27;46412;-76
2022/01/19 07:49:32;;;;;;;;;49.50;34.25;;;;;8.45;67.15;102525.81;5110000;27;45507;-76
2022/01/19 07:51:57;;;;;;;;;41.50;32.25;;;;;8.44;67.03;102531.91;5115647;27;58193;-78
2022/01/19 07:54:23;;;;;;;;;41.25;32.00;;;;;8.42;67.08;102531.84;5111676;27;45488;-78
2022/01/19 07:56:48;;;;;;;;;35.00;28.50;;;;;8.46;67.40;102539.03;5113588;27;46319;-77
2022/01/19 07:59:14;;;;;;;;;46.50;35.50;;;;;8.48;67.20;102539.13;5116251;27;45448;-76
2022/01/19 08:01:40;;;;;;;;;35.25;31.75;;;;;8.50;67.52;102534.84;5106946;27;45488;-77
2022/01/19 08:04:05;;;;;;;;;47.25;35.75;;;;;8.51;67.61;102536.63;5114214;27;47058;-77
2022/01/19 08:06:31;;;;;;;;;45.50;35.50;;;;;8.52;67.31;102539.34;5114545;27;46443;-77
2022/01/19 08:08:56;;;;;;;;;39.50;34.50;;;;;8.55;67.27;102538.59;5113143;27;45472;-77
2022/01/19 08:11:22;;;;;;;;;39.25;33.75;;;;;8.51;67.25;102526.09;5111139;27;45429;-77
2022/01/19 08:13:47;;;;;;;;;41.00;33.50;;;;;8.55;67.36;102533.31;5114068;27;45497;-76
2022/01/19 08:16:13;;;;;;;;;31.50;27.25;;;;;8.51;66.97;102526.09;5109062;27;46358;-76
2022/01/19 08:18:38;;;;;;;;;41.50;32.25;;;;;8.51;67.43;102545.44;5112594;27;45417;-76
2022/01/19 08:21:03;;;;;;;;;33.50;30.00;;;;;8.50;67.39;102530.47;5111101;27;45900;-76
2022/01/19 08:23:29;;;;;;;;;34.50;27.25;;;;;8.53;67.37;102542.88;5110887;27;49506;-76
2022/01/19 08:25:54;;;;;;;;;37.00;32.00;;;;;8.53;67.40;102540.25;5111237;27;45308;-78
2022/01/19 08:28:20;;;;;;;;;43.25;34.75;;;;;8.57;67.48;102548.34;5110202;27;59240;-75
2022/01/19 08:30:46;;;;;;;;;33.75;30.00;;;;;8.59;67.59;102545.81;5111935;27;45562;-75
2022/01/19 08:33:11;;;;;;;;;39.25;30.25;;;;;8.62;67.59;102548.56;5109734;27;46629;-76
2022/01/19 08:35:37;;;;;;;;;43.00;32.00;;;;;8.63;67.60;102547.75;5107777;27;45522;-77
2022/01/19 08:38:03;;;;;;;;;41.00;33.25;;;;;8.59;67.50;102546.69;5109372;27;61004;-75
2022/01/19 08:40:30;;;;;;;;;39.00;28.25;;;;;8.69;67.39;102558.56;5107939;27;45538;-75
2022/01/19 08:42:55;;;;;;;;;35.50;28.75;;;;;8.72;67.46;102568.31;5111809;27;45545;-76
2022/01/19 08:45:20;;;;;;;;;39.25;36.00;;;;;8.72;67.50;102569.22;5117241;27;45678;-76
2022/01/19 08:47:46;;;;;;;;;39.25;33.00;;;;;8.68;67.66;102562.00;5117580;27;45391;-76
2022/01/19 08:50:13;;;;;;;;;31.00;29.00;;;;;8.71;67.35;102572.69;5106101;27;45690;-76
2022/01/19 08:52:38;;;;;;;;;41.75;30.75;;;;;8.71;67.48;102572.69;5103714;27;45637;-77
2022/01/19 08:55:04;;;;;;;;;39.50;30.25;;;;;8.72;67.67;102570.97;5103550;27;58315;-75
2022/01/19 08:57:29;;;;;;;;;41.25;30.50;;;;;8.74;67.52;102567.59;5110811;27;45899;-75
2022/01/19 08:59:55;;;;;;;;;40.50;31.25;;;;;8.77;67.52;102572.97;5110954;27;51343;-76
2022/01/19 09:02:20;;;;;;;;;42.50;35.00;;;;;8.80;67.61;102566.97;5104408;27;53631;-77
2022/01/19 09:07:21;;;;;;;;;35.25;31.00;;;;;8.83;67.33;102572.34;5001558;25;45539;-77
2022/01/19 09:09:46;;;;;;;;;41.00;30.50;;;;;8.82;67.48;102574.09;5037627;28;55466;-77
2022/01/19 09:12:11;;;;;;;;;41.75;34.50;;;;;8.89;67.49;102584.09;5033526;28;55791;-76
2022/01/19 09:14:37;;;;;;;;;37.25;32.75;;;;;8.92;67.23;102588.59;5040784;28;46501;-76
2022/01/19 09:17:07;;;;;;;;;39.50;32.25;;;;;8.96;67.27;102587.00;5035676;28;46323;-76
2022/01/19 09:19:33;;;;;;;;;47.25;34.25;;;;;8.93;67.31;102590.38;5038243;28;45506;-76
2022/01/19 09:21:58;;;;;;;;;44.75;36.50;;;;;8.98;67.47;102594.13;5035618;28;45496;-76
2022/01/19 09:24:23;;;;;;;;;46.50;32.00;;;;;8.99;67.30;102595.94;5035522;28;46209;-77
2022/01/19 09:26:49;;;;;;;;;48.00;32.25;;;;;8.99;67.27;102587.13;5035668;28;46172;-76
2022/01/19 09:29:15;;;;;;;;;50.00;37.00;;;;;8.93;67.14;102587.75;5035549;28;46952;-76
2022/01/19 09:31:43;;;;;;;;;51.75;33.00;;;;;8.97;67.21;102596.69;5032502;28;47409;-76
2022/01/19 09:34:09;;;;;;;;;41.75;32.25;;;;;8.91;67.26;102587.69;5034172;28;47318;-77
2022/01/19 09:36:44;;;;;;;;;47.75;32.00;;;;;8.94;67.13;102592.19;5035665;28;45385;-77
2022/01/19 09:39:09;;;;;;;;;41.50;30.50;;;;;9.00;67.45;102600.41;5033485;28;45480;-78
2022/01/19 09:41:35;;;;;;;;;42.00;37.50;;;;;9.03;67.19;102597.88;5018167;28;45666;-76
2022/01/19 09:44:00;;;;;;;;;42.25;27.25;;;;;9.02;67.30;102593.44;5038750;28;46200;-77
2022/01/19 09:46:26;;;;;;;;;40.75;31.75;;;;;9.08;67.50;102600.72;5032271;28;46824;-77
2022/01/19 09:48:52;;;;;;;;;45.00;34.00;;;;;9.08;67.14;102599.00;5027204;28;45550;-77
2022/01/19 09:51:17;;;;;;;;;52.75;37.75;;;;;9.08;67.18;102592.81;5031928;28;45520;-77
2022/01/19 09:53:42;;;;;;;;;47.75;35.75;;;;;9.11;66.95;102587.72;5018061;28;45687;-78
2022/01/19 09:56:08;;;;;;;;;44.75;29.75;;;;;9.00;67.25;102578.38;5017502;28;45623;-80
2022/01/19 09:58:33;;;;;;;;;41.25;34.50;;;;;9.09;67.42;102581.44;5041462;28;46078;-79
2022/01/19 10:00:59;;;;;;;;;44.00;36.25;;;;;9.16;67.08;102591.41;5032569;28;45482;-77
2022/01/19 10:03:26;;;;;;;;;44.00;33.75;;;;;9.17;66.99;102588.88;5035112;28;46476;-77
2022/01/19 10:06:22;;;;;;;;;52.75;37.75;;;;;9.17;66.83;102587.97;5046101;28;45530;-77
2022/01/19 10:08:48;;;;;;;;;43.75;35.50;;;;;9.21;67.14;102581.97;5033558;28;45560;-76
2022/01/19 10:11:28;;;;;;;;;54.50;36.75;;;;;9.28;66.82;102583.19;5059366;28;45496;-77
2022/01/19 10:17:06;;;;;;;;;51.50;39.00;;;;;9.31;66.80;102583.31;5033011;28;45547;-77
2022/01/19 10:19:49;;;;;;;;;48.50;35.25;;;;;9.26;66.63;102577.81;5052782;28;45423;-77
2022/01/19 10:22:27;;;;;;;;;43.75;32.25;;;;;9.30;66.76;102585.03;5056717;28;45478;-77
2022/01/19 10:25:01;;;;;;;;;46.75;35.75;;;;;9.32;66.76;102586.03;5045446;28;46548;-78
2022/01/19 10:27:48;;;;;;;;;36.50;30.25;;;;;9.35;66.81;102598.44;5038257;28;45581;-77
2022/01/19 10:30:16;;;;;;;;;43.00;31.50;;;;;9.34;66.31;102589.63;5046029;28;45536;-76
2022/01/19 10:32:45;;;;;;;;;52.00;37.25;;;;;9.33;66.60;102584.28;5052792;28;45745;-78
2022/01/19 10:35:24;;;;;;;;;51.25;39.25;;;;;9.34;66.57;102586.97;5053504;28;46600;-77
2022/01/19 10:38:12;;;;;;;;;53.25;39.50;;;;;9.37;66.68;102591.47;5048021;28;45398;-77
2022/01/19 10:40:39;;;;;;;;;47.25;38.25;;;;;9.36;66.33;102589.69;5045760;28;47164;-76
2022/01/19 10:43:39;;;;;;;;;55.50;37.75;;;;;9.35;66.34;102595.78;5064097;28;45593;-77
2022/01/19 10:46:27;;;;;;;;;43.50;36.75;;;;;9.32;66.35;102586.03;5047628;28;46231;-76
2022/01/19 10:49:02;;;;;;;;;49.75;38.25;;;;;9.27;66.17;102578.72;5048045;28;45467;-76
2022/01/19 10:51:37;;;;;;;;;45.25;38.75;;;;;9.29;66.25;102584.97;5045210;28;45447;-77
2022/01/19 10:54:08;;;;;;;;;64.00;44.50;;;;;9.28;66.35;102580.53;5034944;28;45408;-77
2022/01/19 10:56:35;;;;;;;;;79.50;58.00;;;;;9.27;66.53;102569.09;5053721;28;46503;-76
2022/01/19 10:59:06;;;;;;;;;61.25;46.25;;;;;9.22;66.61;102560.09;5051049;28;45623;-76
2022/01/19 11:01:48;;;;;;;;;52.75;41.75;;;;;9.25;66.56;102577.75;5048049;28;45546;-76
2022/01/19 11:04:22;;;;;;;;;58.50;43.25;;;;;9.24;66.44;102562.78;5044441;28;45386;-76
2022/01/19 11:06:48;;;;;;;;;59.00;44.75;;;;;9.24;66.36;102557.50;5052168;28;45709;-76
2022/01/19 11:09:15;;;;;;;;;60.75;44.00;;;;;9.25;66.85;102556.69;5051236;28;45553;-76
2022/01/19 11:11:44;;;;;;;;;60.00;46.25;;;;;9.23;66.42;102553.09;5049485;28;45591;-75
2022/01/19 11:14:13;;;;;;;;;63.25;47.25;;;;;9.27;66.49;102555.00;5053214;28;45598;-78
2022/01/19 11:16:40;;;;;;;;;64.75;47.50;;;;;9.24;66.75;102553.13;5051670;28;47004;-77
2022/01/19 11:19:05;;;;;;;;;66.25;49.75;;;;;9.23;67.02;102540.81;5032687;28;45840;-76
2022/01/19 11:21:31;;;;;;;;;63.75;48.50;;;;;9.23;67.12;102538.16;5048306;28;48571;-76
2022/01/19 11:24:11;;;;;;;;;63.00;49.25;;;;;9.27;66.93;102536.53;5013416;28;45731;-77
2022/01/19 11:26:37;;;;;;;;;65.25;47.00;;;;;9.29;67.26;102537.53;5014009;28;47760;-85
2022/01/19 11:29:18;;;;;;;;;65.25;48.50;;;;;9.27;67.28;102533.91;5018315;28;46300;-82
2022/01/19 11:31:44;;;;;;;;;64.75;48.50;;;;;9.32;67.46;102537.66;5031711;28;45435;-85
2022/01/19 11:34:09;;;;;;;;;63.25;45.75;;;;;9.29;67.15;102535.78;5012113;28;45499;-79
2022/01/19 11:36:36;;;;;;;;;65.25;48.00;;;;;9.35;67.02;102533.41;5050010;28;47355;-75
2022/01/19 11:39:04;;;;;;;;;61.00;44.75;;;;;9.37;66.97;102531.75;5053406;28;45364;-80
2022/01/19 11:41:40;;;;;;;;;60.75;44.50;;;;;9.38;67.11;102536.19;5053263;28;45491;-80
2022/01/19 11:44:07;;;;;;;;;61.00;44.75;;;;;9.39;67.22;102538.00;5054853;28;45514;-80
2022/01/19 11:46:40;;;;;;;;;57.75;42.50;;;;;9.32;66.98;102516.56;5066866;28;46945;-81
2022/01/19 11:49:09;;;;;;;;;57.50;45.75;;;;;9.35;66.90;102524.63;5037664;28;45566;-78
2022/01/19 11:51:45;;;;;;;;;57.75;42.50;;;;;9.25;66.85;102501.31;5044540;28;45476;-81
2022/01/19 11:54:15;;;;;;;;;57.75;43.25;;;;;9.32;67.02;102495.47;5051155;28;45689;-79
2022/01/19 11:56:59;;;;;;;;;58.00;46.00;;;;;9.38;67.04;102519.47;5054878;28;46289;-77
2022/01/19 11:59:30;;;;;;;;;58.50;45.25;;;;;9.39;67.29;102497.56;5053609;28;45520;-76
2022/01/19 12:02:20;;;;;;;;;61.00;48.00;;;;;9.42;66.98;102502.94;5037233;28;45541;-76
2022/01/19 12:04:54;;;;;;;;;52.50;43.00;;;;;9.41;67.04;102506.41;5048128;28;45427;-76
2022/01/19 12:08:14;;;;;;;;;52.50;40.25;;;;;9.41;66.98;102515.22;5047213;28;47735;-76
2022/01/19 12:10:44;;;;;;;;;57.75;37.75;;;;;9.43;67.06;102500.38;5024231;28;45569;-76
2022/01/19 12:16:01;;;;;;;;;45.00;39.00;;;;;9.43;66.99;102495.13;5051057;28;45510;-74
2022/01/19 12:18:37;;;;;;;;;50.00;37.00;;;;;9.47;66.91;102482.03;5053626;28;46598;-74
2022/01/19 12:21:02;;;;;;;;;44.00;36.50;;;;;9.47;66.87;102489.94;5053223;28;45490;-74
2022/01/19 12:23:29;;;;;;;;;55.75;41.00;;;;;9.41;66.62;102480.94;5056727;28;45389;-73
2022/01/19 12:25:55;;;;;;;;;45.00;35.25;;;;;9.43;67.02;102483.66;5056443;28;45926;-75
2022/01/19 12:28:41;;;;;;;;;41.25;33.25;;;;;9.47;66.53;102490.84;5054604;28;46432;-74
2022/01/19 12:31:24;;;;;;;;;47.25;34.75;;;;;9.45;67.12;102474.97;5055412;28;45855;-75
2022/01/19 12:34:02;;;;;;;;;51.00;38.75;;;;;9.44;67.42;102473.19;5053354;28;45391;-74
2022/01/19 12:36:49;;;;;;;;;40.50;32.00;;;;;9.41;66.99;102478.31;5054872;28;45733;-73
2022/01/19 12:39:26;;;;;;;;;46.00;33.75;;;;;9.42;66.91;102464.28;5056678;28;47539;-74
2022/01/19 12:42:30;;;;;;;;;38.50;33.75;;;;;9.44;66.90;102464.38;5056516;28;45469;-75
2022/01/19 12:44:57;;;;;;;;;42.75;35.00;;;;;9.45;67.05;102456.53;5055009;28;45527;-76
2022/01/19 12:47:25;;;;;;;;;43.00;33.50;;;;;9.49;67.01;102470.75;5055799;28;45289;-74